sensor_id;sensor_type;location;lat;lon;timestamp;pressure;altitude;pressure_sealevel;temperature;humidity
5550;BME280;2798;42.716;23.256;2023-08-30T00:00:49;93849.94;;;26.27;60.31
5550;BME280;2798;42.716;23.256;2023-08-30T00:03:15;93838.81;;;26.13;58.60
5550;BME280;2798;42.716;23.256;2023-08-30T00:05:40;93840.31;;;26.09;57.75
5550;BME280;2798;42.716;23.256;2023-08-30T00:08:06;93830.94;;;26.01;58.52
5550;BME280;2798;42.716;23.256;2023-08-30T00:10:31;93826.34;;;26.09;59.60
5550;BME280;2798;42.716;23.256;2023-08-30T00:12:57;93826.47;;;26.02;59.09
5550;BME280;2798;42.716;23.256;2023-08-30T00:15:22;93826.56;;;26.07;59.66
5550;BME280;2798;42.716;23.256;2023-08-30T00:17:47;93830.59;;;26.10;60.11
5550;BME280;2798;42.716;23.256;2023-08-30T00:20:13;93839.88;;;26.00;58.79
5550;BME280;2798;42.716;23.256;2023-08-30T00:22:38;93842.06;;;26.03;60.38
5550;BME280;2798;42.716;23.256;2023-08-30T00:25:04;93851.91;;;26.08;59.99
5550;BME280;2798;42.716;23.256;2023-08-30T00:27:30;93842.28;;;26.14;59.96
5550;BME280;2798;42.716;23.256;2023-08-30T00:29:55;93833.78;;;26.12;59.45
5550;BME280;2798;42.716;23.256;2023-08-30T00:32:20;93823.94;;;26.07;58.11
5550;BME280;2798;42.716;23.256;2023-08-30T00:34:49;93828.41;;;26.07;58.73
5550;BME280;2798;42.716;23.256;2023-08-30T00:37:14;93830.59;;;26.10;59.05
5550;BME280;2798;42.716;23.256;2023-08-30T00:39:40;93828.66;;;26.05;59.42
5550;BME280;2798;42.716;23.256;2023-08-30T00:42:05;93834.63;;;26.00;58.22
5550;BME280;2798;42.716;23.256;2023-08-30T00:44:32;93832.31;;;26.04;58.85
5550;BME280;2798;42.716;23.256;2023-08-30T00:46:58;93822.69;;;25.98;57.74
5550;BME280;2798;42.716;23.256;2023-08-30T00:49:24;93827.06;;;25.92;58.16
5550;BME280;2798;42.716;23.256;2023-08-30T00:51:49;93843.41;;;25.94;59.13
5550;BME280;2798;42.716;23.256;2023-08-30T00:54:15;93848.59;;;25.89;59.09
5550;BME280;2798;42.716;23.256;2023-08-30T00:56:41;93841.81;;;25.93;58.95
5550;BME280;2798;42.716;23.256;2023-08-30T00:59:06;93846.19;;;25.87;58.68
5550;BME280;2798;42.716;23.256;2023-08-30T01:01:31;93847.31;;;25.79;57.93
5550;BME280;2798;42.716;23.256;2023-08-30T01:03:57;93844.69;;;25.79;58.73
5550;BME280;2798;42.716;23.256;2023-08-30T01:06:22;93845.72;;;25.78;58.52
5550;BME280;2798;42.716;23.256;2023-08-30T01:08:47;93846.53;;;25.79;59.50
5550;BME280;2798;42.716;23.256;2023-08-30T01:13:40;93843.88;;;25.67;59.32
5550;BME280;2798;42.716;23.256;2023-08-30T01:16:07;93786.44;;;25.33;59.82
5550;BME280;2798;42.716;23.256;2023-08-30T01:18:34;93850.31;;;25.71;60.11
5550;BME280;2798;42.716;23.256;2023-08-30T01:21:01;93849.63;;;25.76;60.26
5550;BME280;2798;42.716;23.256;2023-08-30T01:23:32;93856.13;;;25.73;59.34
5550;BME280;2798;42.716;23.256;2023-08-30T01:26:16;93858.09;;;25.66;59.27
5550;BME280;2798;42.716;23.256;2023-08-30T01:28:44;93862.53;;;25.65;58.18
5550;BME280;2798;42.716;23.256;2023-08-30T01:31:11;93863.19;;;25.61;58.05
5550;BME280;2798;42.716;23.256;2023-08-30T01:33:38;93862.75;;;25.52;57.89
5550;BME280;2798;42.716;23.256;2023-08-30T01:36:04;93849.34;;;25.53;57.60
5550;BME280;2798;42.716;23.256;2023-08-30T01:38:30;93853.94;;;25.58;58.51
5550;BME280;2798;42.716;23.256;2023-08-30T01:40:57;93840.41;;;25.54;57.58
5550;BME280;2798;42.716;23.256;2023-08-30T01:43:25;93830.19;;;25.46;57.40
5550;BME280;2798;42.716;23.256;2023-08-30T01:45:51;93835.69;;;25.45;57.48
5550;BME280;2798;42.716;23.256;2023-08-30T01:48:17;93841.53;;;25.47;58.58
5550;BME280;2798;42.716;23.256;2023-08-30T01:50:43;93838.81;;;25.53;58.54
5550;BME280;2798;42.716;23.256;2023-08-30T01:53:10;93852.31;;;25.57;58.25
5550;BME280;2798;42.716;23.256;2023-08-30T01:55:36;93852.66;;;25.49;58.01
5550;BME280;2798;42.716;23.256;2023-08-30T01:58:02;93850.03;;;25.49;58.47
5550;BME280;2798;42.716;23.256;2023-08-30T02:00:28;93849.13;;;25.55;58.38
5550;BME280;2798;42.716;23.256;2023-08-30T02:02:53;93846.03;;;25.58;58.27
5550;BME280;2798;42.716;23.256;2023-08-30T02:05:19;93844.63;;;25.55;57.94
5550;BME280;2798;42.716;23.256;2023-08-30T02:08:02;93846.94;;;25.52;58.39
5550;BME280;2798;42.716;23.256;2023-08-30T02:10:34;93862.75;;;25.52;58.68
5550;BME280;2798;42.716;23.256;2023-08-30T02:13:00;93865.00;;;25.48;58.15
5550;BME280;2798;42.716;23.256;2023-08-30T02:15:26;93856.44;;;25.53;59.19
5550;BME280;2798;42.716;23.256;2023-08-30T02:17:52;93850.13;;;25.54;58.72
5550;BME280;2798;42.716;23.256;2023-08-30T02:20:18;93852.31;;;25.57;59.81
5550;BME280;2798;42.716;23.256;2023-08-30T02:22:44;93842.56;;;25.58;60.17
5550;BME280;2798;42.716;23.256;2023-08-30T02:25:09;93846.13;;;25.51;59.42
5550;BME280;2798;42.716;23.256;2023-08-30T02:27:35;93851.63;;;25.50;60.45
5550;BME280;2798;42.716;23.256;2023-08-30T02:30:00;93852.97;;;25.40;59.90
5550;BME280;2798;42.716;23.256;2023-08-30T02:32:25;93847.94;;;25.39;60.57
5550;BME280;2798;42.716;23.256;2023-08-30T02:34:51;93806.69;;;25.21;60.71
5550;BME280;2798;42.716;23.256;2023-08-30T02:37:17;93835.56;;;25.39;61.50
5550;BME280;2798;42.716;23.256;2023-08-30T02:39:43;93842.31;;;25.35;60.53
5550;BME280;2798;42.716;23.256;2023-08-30T02:42:08;93835.09;;;25.30;60.73
5550;BME280;2798;42.716;23.256;2023-08-30T02:44:34;93838.41;;;25.38;60.48
5550;BME280;2798;42.716;23.256;2023-08-30T02:47:00;93829.72;;;25.37;60.31
5550;BME280;2798;42.716;23.256;2023-08-30T02:49:25;93832.38;;;25.37;60.01
5550;BME280;2798;42.716;23.256;2023-08-30T02:51:50;93825.03;;;25.39;60.28
5550;BME280;2798;42.716;23.256;2023-08-30T02:54:15;93837.03;;;25.35;60.64
5550;BME280;2798;42.716;23.256;2023-08-30T02:56:41;93832.81;;;25.34;60.35
5550;BME280;2798;42.716;23.256;2023-08-30T02:59:08;93829.59;;;25.32;59.78
5550;BME280;2798;42.716;23.256;2023-08-30T03:01:33;93823.16;;;25.28;59.40
5550;BME280;2798;42.716;23.256;2023-08-30T03:03:58;93816.75;;;25.24;60.12
5550;BME280;2798;42.716;23.256;2023-08-30T03:06:24;93781.91;;;24.98;60.38
5550;BME280;2798;42.716;23.256;2023-08-30T03:08:50;93829.69;;;25.25;60.17
5550;BME280;2798;42.716;23.256;2023-08-30T03:11:15;93840.13;;;25.32;60.52
5550;BME280;2798;42.716;23.256;2023-08-30T03:13:41;93837.94;;;25.29;60.76
5550;BME280;2798;42.716;23.256;2023-08-30T03:16:09;93838.41;;;25.26;59.96
5550;BME280;2798;42.716;23.256;2023-08-30T03:18:36;93835.31;;;25.29;61.23
5550;BME280;2798;42.716;23.256;2023-08-30T03:21:01;93834.88;;;25.32;61.30
5550;BME280;2798;42.716;23.256;2023-08-30T03:23:27;93822.59;;;25.26;60.58
5550;BME280;2798;42.716;23.256;2023-08-30T03:25:56;93820.88;;;25.20;60.22
5550;BME280;2798;42.716;23.256;2023-08-30T03:28:21;93815.25;;;25.16;59.59
5550;BME280;2798;42.716;23.256;2023-08-30T03:30:46;93811.59;;;25.17;59.60
5550;BME280;2798;42.716;23.256;2023-08-30T03:33:12;93811.03;;;25.15;59.18
5550;BME280;2798;42.716;23.256;2023-08-30T03:35:38;93810.31;;;25.08;59.06
5550;BME280;2798;42.716;23.256;2023-08-30T03:38:03;93815.78;;;25.06;59.10
5550;BME280;2798;42.716;23.256;2023-08-30T03:40:29;93809.84;;;24.99;58.80
5550;BME280;2798;42.716;23.256;2023-08-30T03:42:54;93818.53;;;24.99;59.42
5550;BME280;2798;42.716;23.256;2023-08-30T03:45:20;93807.53;;;25.02;59.55
5550;BME280;2798;42.716;23.256;2023-08-30T03:47:45;93800.69;;;25.01;59.10
5550;BME280;2798;42.716;23.256;2023-08-30T03:50:10;93809.63;;;25.00;59.52
5550;BME280;2798;42.716;23.256;2023-08-30T03:52:35;93815.53;;;24.96;59.98
5550;BME280;2798;42.716;23.256;2023-08-30T03:55:01;93830.66;;;25.00;60.16
5550;BME280;2798;42.716;23.256;2023-08-30T03:57:26;93843.69;;;24.95;59.88
5550;BME280;2798;42.716;23.256;2023-08-30T03:59:51;93845.72;;;24.93;60.41
5550;BME280;2798;42.716;23.256;2023-08-30T04:02:16;93849.72;;;24.96;59.56
5550;BME280;2798;42.716;23.256;2023-08-30T04:04:42;93841.66;;;24.97;59.82
5550;BME280;2798;42.716;23.256;2023-08-30T04:07:07;93835.56;;;24.97;59.75
5550;BME280;2798;42.716;23.256;2023-08-30T04:09:32;93822.88;;;25.05;59.84
5550;BME280;2798;42.716;23.256;2023-08-30T04:11:58;93824.50;;;25.06;59.56
5550;BME280;2798;42.716;23.256;2023-08-30T04:14:24;93832.97;;;25.09;59.14
5550;BME280;2798;42.716;23.256;2023-08-30T04:16:49;93845.66;;;25.12;58.87
5550;BME280;2798;42.716;23.256;2023-08-30T04:19:15;93845.59;;;25.18;58.59
5550;BME280;2798;42.716;23.256;2023-08-30T04:21:40;93857.41;;;25.28;58.65
5550;BME280;2798;42.716;23.256;2023-08-30T04:24:06;93864.28;;;25.29;59.43
5550;BME280;2798;42.716;23.256;2023-08-30T04:26:31;93858.94;;;25.36;58.29
5550;BME280;2798;42.716;23.256;2023-08-30T04:28:56;93876.38;;;25.49;58.98
5550;BME280;2798;42.716;23.256;2023-08-30T04:31:21;93893.19;;;25.48;58.63
5550;BME280;2798;42.716;23.256;2023-08-30T04:33:47;93917.84;;;25.53;58.48
5550;BME280;2798;42.716;23.256;2023-08-30T04:36:12;93932.59;;;25.54;60.19
5550;BME280;2798;42.716;23.256;2023-08-30T04:38:37;93930.88;;;25.48;58.73
5550;BME280;2798;42.716;23.256;2023-08-30T04:41:03;93905.34;;;25.49;58.61
5550;BME280;2798;42.716;23.256;2023-08-30T04:43:28;93902.22;;;25.40;56.56
5550;BME280;2798;42.716;23.256;2023-08-30T04:45:53;93910.88;;;25.28;55.85
5550;BME280;2798;42.716;23.256;2023-08-30T04:48:19;93943.00;;;25.18;58.92
5550;BME280;2798;42.716;23.256;2023-08-30T04:50:44;93934.69;;;25.03;59.54
5550;BME280;2798;42.716;23.256;2023-08-30T04:53:09;93940.47;;;24.93;57.04
5550;BME280;2798;42.716;23.256;2023-08-30T04:55:35;93940.69;;;24.73;59.97
5550;BME280;2798;42.716;23.256;2023-08-30T04:58:00;93917.72;;;24.61;57.46
5550;BME280;2798;42.716;23.256;2023-08-30T05:00:25;93885.59;;;24.40;57.63
5550;BME280;2798;42.716;23.256;2023-08-30T05:02:51;93858.56;;;24.07;59.78
5550;BME280;2798;42.716;23.256;2023-08-30T05:05:16;93899.50;;;24.22;60.72
5550;BME280;2798;42.716;23.256;2023-08-30T05:07:41;93897.19;;;24.07;61.92
5550;BME280;2798;42.716;23.256;2023-08-30T05:10:07;93898.75;;;23.89;62.09
5550;BME280;2798;42.716;23.256;2023-08-30T05:12:35;93898.63;;;23.84;63.96
5550;BME280;2798;42.716;23.256;2023-08-30T05:15:01;93900.44;;;23.83;62.21
5550;BME280;2798;42.716;23.256;2023-08-30T05:17:26;93906.94;;;23.81;62.41
5550;BME280;2798;42.716;23.256;2023-08-30T05:19:53;93906.97;;;24.00;62.85
5550;BME280;2798;42.716;23.256;2023-08-30T05:22:19;93906.50;;;23.84;61.63
5550;BME280;2798;42.716;23.256;2023-08-30T05:24:44;93906.31;;;23.79;62.04
5550;BME280;2798;42.716;23.256;2023-08-30T05:27:09;93896.78;;;23.85;61.86
5550;BME280;2798;42.716;23.256;2023-08-30T05:29:36;93900.69;;;23.75;61.17
5550;BME280;2798;42.716;23.256;2023-08-30T05:32:02;93900.22;;;23.60;62.70
5550;BME280;2798;42.716;23.256;2023-08-30T05:34:27;93917.00;;;23.58;63.55
5550;BME280;2798;42.716;23.256;2023-08-30T05:36:53;93918.00;;;23.57;63.08
5550;BME280;2798;42.716;23.256;2023-08-30T05:39:18;93904.47;;;23.54;62.26
5550;BME280;2798;42.716;23.256;2023-08-30T05:41:43;93907.50;;;23.57;62.89
5550;BME280;2798;42.716;23.256;2023-08-30T05:44:09;93901.50;;;23.50;63.21
5550;BME280;2798;42.716;23.256;2023-08-30T05:46:34;93904.13;;;23.50;63.10
5550;BME280;2798;42.716;23.256;2023-08-30T05:49:00;93900.84;;;23.55;62.81
5550;BME280;2798;42.716;23.256;2023-08-30T05:51:27;93906.66;;;23.57;63.43
5550;BME280;2798;42.716;23.256;2023-08-30T05:53:52;93898.00;;;23.56;63.11
5550;BME280;2798;42.716;23.256;2023-08-30T05:56:18;93897.59;;;23.60;63.26
5550;BME280;2798;42.716;23.256;2023-08-30T05:58:43;93903.31;;;23.50;62.68
5550;BME280;2798;42.716;23.256;2023-08-30T06:01:08;93903.47;;;23.55;62.05
5550;BME280;2798;42.716;23.256;2023-08-30T06:03:34;93894.56;;;23.56;61.85
5550;BME280;2798;42.716;23.256;2023-08-30T06:05:59;93901.34;;;23.70;62.65
5550;BME280;2798;42.716;23.256;2023-08-30T06:08:25;93897.47;;;23.73;61.67
5550;BME280;2798;42.716;23.256;2023-08-30T06:10:50;93902.88;;;23.78;61.70
5550;BME280;2798;42.716;23.256;2023-08-30T06:13:15;93906.28;;;23.86;61.57
5550;BME280;2798;42.716;23.256;2023-08-30T06:15:40;93899.50;;;23.97;60.91
5550;BME280;2798;42.716;23.256;2023-08-30T06:18:06;93897.63;;;24.04;60.91
5550;BME280;2798;42.716;23.256;2023-08-30T06:20:31;93903.84;;;24.10;60.77
5550;BME280;2798;42.716;23.256;2023-08-30T06:23:03;93904.22;;;24.13;60.25
5550;BME280;2798;42.716;23.256;2023-08-30T06:25:28;93904.16;;;24.20;60.16
5550;BME280;2798;42.716;23.256;2023-08-30T06:27:57;93908.94;;;24.30;59.24
5550;BME280;2798;42.716;23.256;2023-08-30T06:30:24;93916.75;;;24.37;60.76
5550;BME280;2798;42.716;23.256;2023-08-30T06:32:49;93915.22;;;24.48;59.09
5550;BME280;2798;42.716;23.256;2023-08-30T06:35:15;93916.31;;;24.59;59.14
5550;BME280;2798;42.716;23.256;2023-08-30T06:37:40;93919.69;;;24.66;58.42
5550;BME280;2798;42.716;23.256;2023-08-30T06:40:06;93921.69;;;24.71;59.31
5550;BME280;2798;42.716;23.256;2023-08-30T06:42:31;93921.44;;;24.72;56.09
5550;BME280;2798;42.716;23.256;2023-08-30T06:44:56;93910.50;;;24.56;56.61
5550;BME280;2798;42.716;23.256;2023-08-30T06:47:22;93920.16;;;24.63;56.16
5550;BME280;2798;42.716;23.256;2023-08-30T06:49:47;93927.72;;;24.52;55.61
5550;BME280;2798;42.716;23.256;2023-08-30T06:52:12;93927.72;;;24.34;55.97
5550;BME280;2798;42.716;23.256;2023-08-30T06:54:38;93923.28;;;24.34;56.91
5550;BME280;2798;42.716;23.256;2023-08-30T06:57:03;93921.50;;;24.28;56.67
5550;BME280;2798;42.716;23.256;2023-08-30T06:59:29;93918.66;;;24.29;55.90
5550;BME280;2798;42.716;23.256;2023-08-30T07:01:55;93928.16;;;24.30;57.11
5550;BME280;2798;42.716;23.256;2023-08-30T07:04:20;93925.09;;;24.34;57.93
5550;BME280;2798;42.716;23.256;2023-08-30T07:06:45;93913.78;;;24.52;56.45
5550;BME280;2798;42.716;23.256;2023-08-30T07:09:11;93916.84;;;24.49;55.41
5550;BME280;2798;42.716;23.256;2023-08-30T07:11:37;93915.22;;;24.48;55.77
5550;BME280;2798;42.716;23.256;2023-08-30T07:14:02;93917.94;;;24.60;55.77
5550;BME280;2798;42.716;23.256;2023-08-30T07:16:27;93919.19;;;24.57;55.96
5550;BME280;2798;42.716;23.256;2023-08-30T07:18:52;93915.09;;;24.61;56.41
5550;BME280;2798;42.716;23.256;2023-08-30T07:21:18;93910.72;;;24.74;55.48
5550;BME280;2798;42.716;23.256;2023-08-30T07:23:43;93917.34;;;24.76;54.33
5550;BME280;2798;42.716;23.256;2023-08-30T07:26:09;93920.94;;;24.82;55.31
5550;BME280;2798;42.716;23.256;2023-08-30T07:28:34;93927.13;;;24.88;54.87
5550;BME280;2798;42.716;23.256;2023-08-30T07:31:03;93926.13;;;24.89;55.03
5550;BME280;2798;42.716;23.256;2023-08-30T07:33:28;93922.19;;;24.98;55.39
5550;BME280;2798;42.716;23.256;2023-08-30T07:35:54;93928.38;;;25.04;54.23
5550;BME280;2798;42.716;23.256;2023-08-30T07:38:19;93924.88;;;25.10;54.30
5550;BME280;2798;42.716;23.256;2023-08-30T07:40:44;93930.66;;;25.19;54.98
5550;BME280;2798;42.716;23.256;2023-08-30T07:43:09;93927.78;;;25.21;53.88
5550;BME280;2798;42.716;23.256;2023-08-30T07:45:35;93924.03;;;25.28;54.54
5550;BME280;2798;42.716;23.256;2023-08-30T07:48:00;93925.31;;;25.38;51.84
5550;BME280;2798;42.716;23.256;2023-08-30T07:50:25;93912.97;;;25.38;52.09
5550;BME280;2798;42.716;23.256;2023-08-30T07:52:50;93913.28;;;25.30;51.23
5550;BME280;2798;42.716;23.256;2023-08-30T07:55:16;93908.47;;;25.27;52.70
5550;BME280;2798;42.716;23.256;2023-08-30T07:57:41;93916.81;;;25.24;52.84
5550;BME280;2798;42.716;23.256;2023-08-30T08:00:06;93930.41;;;25.21;53.19
5550;BME280;2798;42.716;23.256;2023-08-30T08:02:33;93926.06;;;25.26;52.99
5550;BME280;2798;42.716;23.256;2023-08-30T08:04:58;93922.44;;;25.27;52.95
5550;BME280;2798;42.716;23.256;2023-08-30T08:07:23;93920.72;;;25.33;52.00
5550;BME280;2798;42.716;23.256;2023-08-30T08:09:49;93932.66;;;25.36;52.73
5550;BME280;2798;42.716;23.256;2023-08-30T08:12:14;93924.88;;;25.41;52.96
5550;BME280;2798;42.716;23.256;2023-08-30T08:14:40;93921.69;;;25.51;50.93
5550;BME280;2798;42.716;23.256;2023-08-30T08:17:05;93927.56;;;25.53;50.94
5550;BME280;2798;42.716;23.256;2023-08-30T08:19:30;93928.59;;;25.52;51.44
5550;BME280;2798;42.716;23.256;2023-08-30T08:21:56;93936.81;;;25.55;50.94
5550;BME280;2798;42.716;23.256;2023-08-30T08:24:22;93933.03;;;25.51;50.50
5550;BME280;2798;42.716;23.256;2023-08-30T08:26:47;93935.00;;;25.56;51.75
5550;BME280;2798;42.716;23.256;2023-08-30T08:29:12;93937.94;;;25.66;52.60
5550;BME280;2798;42.716;23.256;2023-08-30T08:31:38;93932.91;;;25.77;52.82
5550;BME280;2798;42.716;23.256;2023-08-30T08:34:07;93938.53;;;25.92;51.66
5550;BME280;2798;42.716;23.256;2023-08-30T08:36:34;93942.00;;;26.05;51.19
5550;BME280;2798;42.716;23.256;2023-08-30T08:39:00;93942.34;;;26.21;51.25
5550;BME280;2798;42.716;23.256;2023-08-30T08:41:26;93941.78;;;26.31;47.17
5550;BME280;2798;42.716;23.256;2023-08-30T08:43:53;93953.03;;;26.38;46.93
5550;BME280;2798;42.716;23.256;2023-08-30T08:46:19;93948.00;;;26.48;47.09
5550;BME280;2798;42.716;23.256;2023-08-30T08:48:46;93943.50;;;26.61;45.85
5550;BME280;2798;42.716;23.256;2023-08-30T08:51:11;93936.19;;;26.39;46.10
5550;BME280;2798;42.716;23.256;2023-08-30T08:53:37;93935.41;;;26.38;46.84
5550;BME280;2798;42.716;23.256;2023-08-30T08:56:03;93937.44;;;26.24;47.61
5550;BME280;2798;42.716;23.256;2023-08-30T08:58:29;93928.81;;;26.17;47.81
5550;BME280;2798;42.716;23.256;2023-08-30T09:00:55;93926.88;;;26.24;48.44
5550;BME280;2798;42.716;23.256;2023-08-30T09:03:20;93924.34;;;26.29;48.95
5550;BME280;2798;42.716;23.256;2023-08-30T09:05:46;93924.84;;;26.38;48.04
5550;BME280;2798;42.716;23.256;2023-08-30T09:08:14;93924.03;;;26.50;48.37
5550;BME280;2798;42.716;23.256;2023-08-30T09:10:40;93913.38;;;26.57;47.39
5550;BME280;2798;42.716;23.256;2023-08-30T09:13:06;93924.63;;;26.40;48.07
5550;BME280;2798;42.716;23.256;2023-08-30T09:15:34;93918.06;;;26.42;48.60
5550;BME280;2798;42.716;23.256;2023-08-30T09:18:02;93911.84;;;26.49;49.18
5550;BME280;2798;42.716;23.256;2023-08-30T09:20:27;93916.47;;;26.53;48.30
5550;BME280;2798;42.716;23.256;2023-08-30T09:22:52;93916.91;;;26.62;48.58
5550;BME280;2798;42.716;23.256;2023-08-30T09:25:24;93916.53;;;26.71;48.37
5550;BME280;2798;42.716;23.256;2023-08-30T09:27:50;93911.94;;;26.78;47.23
5550;BME280;2798;42.716;23.256;2023-08-30T09:30:20;93916.88;;;26.74;47.42
5550;BME280;2798;42.716;23.256;2023-08-30T09:32:46;93916.66;;;26.76;47.71
5550;BME280;2798;42.716;23.256;2023-08-30T09:35:12;93914.47;;;26.73;47.52
5550;BME280;2798;42.716;23.256;2023-08-30T09:37:37;93911.72;;;26.68;47.66
5550;BME280;2798;42.716;23.256;2023-08-30T09:40:03;93908.09;;;26.57;47.74
5550;BME280;2798;42.716;23.256;2023-08-30T09:42:28;93915.88;;;26.51;47.68
5550;BME280;2798;42.716;23.256;2023-08-30T09:44:54;93918.06;;;26.54;47.86
5550;BME280;2798;42.716;23.256;2023-08-30T09:47:19;93910.34;;;26.65;48.00
5550;BME280;2798;42.716;23.256;2023-08-30T09:49:44;93905.53;;;26.74;47.96
5550;BME280;2798;42.716;23.256;2023-08-30T09:52:11;93902.88;;;26.86;47.46
5550;BME280;2798;42.716;23.256;2023-08-30T09:54:37;93899.34;;;27.09;47.12
5550;BME280;2798;42.716;23.256;2023-08-30T09:57:06;93896.81;;;27.14;47.35
5550;BME280;2798;42.716;23.256;2023-08-30T09:59:32;93900.09;;;27.22;46.24
5550;BME280;2798;42.716;23.256;2023-08-30T10:01:57;93892.25;;;27.10;46.47
5550;BME280;2798;42.716;23.256;2023-08-30T10:04:25;93888.56;;;27.11;46.96
5550;BME280;2798;42.716;23.256;2023-08-30T10:06:51;93895.66;;;27.10;47.12
5550;BME280;2798;42.716;23.256;2023-08-30T10:09:17;93892.31;;;27.15;47.20
5550;BME280;2798;42.716;23.256;2023-08-30T10:11:43;93896.88;;;27.20;46.88
5550;BME280;2798;42.716;23.256;2023-08-30T10:14:09;93885.31;;;27.21;47.05
5550;BME280;2798;42.716;23.256;2023-08-30T10:16:43;93878.34;;;27.14;46.24
5550;BME280;2798;42.716;23.256;2023-08-30T10:19:11;93881.53;;;27.17;46.43
5550;BME280;2798;42.716;23.256;2023-08-30T10:21:39;93883.25;;;27.23;45.77
5550;BME280;2798;42.716;23.256;2023-08-30T10:24:05;93875.63;;;27.26;45.98
5550;BME280;2798;42.716;23.256;2023-08-30T10:26:32;93882.53;;;27.27;45.79
5550;BME280;2798;42.716;23.256;2023-08-30T10:28:58;93876.84;;;27.36;45.13
5550;BME280;2798;42.716;23.256;2023-08-30T10:31:24;93878.56;;;27.42;44.29
5550;BME280;2798;42.716;23.256;2023-08-30T10:33:49;93862.47;;;27.44;44.22
5550;BME280;2798;42.716;23.256;2023-08-30T10:36:21;93876.84;;;27.36;44.36
5550;BME280;2798;42.716;23.256;2023-08-30T10:38:51;93882.13;;;27.36;43.66
5550;BME280;2798;42.716;23.256;2023-08-30T10:41:25;93875.09;;;27.42;43.34
5550;BME280;2798;42.716;23.256;2023-08-30T10:43:57;93866.63;;;27.57;42.46
5550;BME280;2798;42.716;23.256;2023-08-30T10:46:29;93863.91;;;27.51;42.71
5550;BME280;2798;42.716;23.256;2023-08-30T10:48:54;93860.13;;;27.47;42.93
5550;BME280;2798;42.716;23.256;2023-08-30T10:51:35;93856.94;;;27.62;42.59
5550;BME280;2798;42.716;23.256;2023-08-30T10:54:13;93848.38;;;27.55;40.67
5550;BME280;2798;42.716;23.256;2023-08-30T10:56:47;93853.47;;;27.62;41.59
5550;BME280;2798;42.716;23.256;2023-08-30T10:59:16;93849.84;;;27.80;41.75
5550;BME280;2798;42.716;23.256;2023-08-30T11:01:43;93855.41;;;28.01;40.60
5550;BME280;2798;42.716;23.256;2023-08-30T11:04:09;93866.78;;;28.19;41.07
5550;BME280;2798;42.716;23.256;2023-08-30T11:06:34;93864.28;;;28.29;41.07
5550;BME280;2798;42.716;23.256;2023-08-30T11:09:03;93856.97;;;28.36;39.07
5550;BME280;2798;42.716;23.256;2023-08-30T11:11:28;93824.59;;;28.29;38.29
5550;BME280;2798;42.716;23.256;2023-08-30T11:13:54;93850.94;;;28.63;37.70
5550;BME280;2798;42.716;23.256;2023-08-30T11:16:22;93852.50;;;28.82;37.22
5550;BME280;2798;42.716;23.256;2023-08-30T11:18:48;93847.94;;;28.99;36.21
5550;BME280;2798;42.716;23.256;2023-08-30T11:21:14;93845.25;;;29.22;36.71
5550;BME280;2798;42.716;23.256;2023-08-30T11:23:39;93840.63;;;29.40;35.46
5550;BME280;2798;42.716;23.256;2023-08-30T11:26:04;93848.69;;;29.50;29.31
5550;BME280;2798;42.716;23.256;2023-08-30T11:28:30;93833.44;;;29.63;29.29
5550;BME280;2798;42.716;23.256;2023-08-30T11:30:55;93831.94;;;29.77;29.67
5550;BME280;2798;42.716;23.256;2023-08-30T11:33:21;93835.47;;;29.88;31.04
5550;BME280;2798;42.716;23.256;2023-08-30T11:35:50;93827.25;;;29.90;30.83
5550;BME280;2798;42.716;23.256;2023-08-30T11:38:17;93816.34;;;29.86;30.37
5550;BME280;2798;42.716;23.256;2023-08-30T11:40:42;93827.53;;;29.93;30.82
5550;BME280;2798;42.716;23.256;2023-08-30T11:43:08;93821.72;;;29.96;29.81
5550;BME280;2798;42.716;23.256;2023-08-30T11:45:33;93816.19;;;30.03;30.53
5550;BME280;2798;42.716;23.256;2023-08-30T11:47:59;93828.63;;;29.97;28.71
5550;BME280;2798;42.716;23.256;2023-08-30T11:50:25;93819.06;;;29.96;28.50
5550;BME280;2798;42.716;23.256;2023-08-30T11:52:51;93795.50;;;30.00;29.36
5550;BME280;2798;42.716;23.256;2023-08-30T11:55:17;93810.09;;;30.03;29.75
5550;BME280;2798;42.716;23.256;2023-08-30T11:57:47;93815.47;;;30.13;30.13
5550;BME280;2798;42.716;23.256;2023-08-30T12:00:13;93807.81;;;30.22;29.31
5550;BME280;2798;42.716;23.256;2023-08-30T12:02:39;93807.88;;;30.32;29.96
5550;BME280;2798;42.716;23.256;2023-08-30T12:05:05;93799.41;;;30.35;29.55
5550;BME280;2798;42.716;23.256;2023-08-30T12:07:30;93809.50;;;30.39;29.88
5550;BME280;2798;42.716;23.256;2023-08-30T12:10:05;93804.72;;;30.41;29.37
5550;BME280;2798;42.716;23.256;2023-08-30T12:12:30;93810.53;;;30.38;29.10
5550;BME280;2798;42.716;23.256;2023-08-30T12:14:56;93806.81;;;30.33;30.02
5550;BME280;2798;42.716;23.256;2023-08-30T12:17:22;93798.88;;;30.39;29.83
5550;BME280;2798;42.716;23.256;2023-08-30T12:19:54;93791.69;;;30.39;28.65
5550;BME280;2798;42.716;23.256;2023-08-30T12:22:20;93781.13;;;30.50;27.89
5550;BME280;2798;42.716;23.256;2023-08-30T12:24:46;93772.38;;;30.54;27.98
5550;BME280;2798;42.716;23.256;2023-08-30T12:27:12;93789.41;;;30.64;27.12
5550;BME280;2798;42.716;23.256;2023-08-30T12:29:37;93780.38;;;30.70;26.28
5550;BME280;2798;42.716;23.256;2023-08-30T12:32:03;93780.19;;;30.82;24.84
5550;BME280;2798;42.716;23.256;2023-08-30T12:34:28;93774.09;;;30.92;24.58
5550;BME280;2798;42.716;23.256;2023-08-30T12:36:53;93779.66;;;30.95;25.68
5550;BME280;2798;42.716;23.256;2023-08-30T12:39:18;93778.09;;;31.00;26.28
5550;BME280;2798;42.716;23.256;2023-08-30T12:41:44;93770.13;;;31.05;26.30
5550;BME280;2798;42.716;23.256;2023-08-30T12:44:09;93770.38;;;31.08;25.61
5550;BME280;2798;42.716;23.256;2023-08-30T12:46:34;93771.19;;;31.14;25.42
5550;BME280;2798;42.716;23.256;2023-08-30T12:49:00;93777.03;;;31.27;25.83
5550;BME280;2798;42.716;23.256;2023-08-30T12:51:25;93764.56;;;31.27;24.93
5550;BME280;2798;42.716;23.256;2023-08-30T12:53:50;93758.97;;;31.34;24.70
5550;BME280;2798;42.716;23.256;2023-08-30T12:56:15;93756.59;;;31.48;25.37
5550;BME280;2798;42.716;23.256;2023-08-30T12:58:41;93759.25;;;31.58;25.11
5550;BME280;2798;42.716;23.256;2023-08-30T13:01:06;93770.41;;;31.66;25.16
5550;BME280;2798;42.716;23.256;2023-08-30T13:03:31;93767.47;;;31.73;24.73
5550;BME280;2798;42.716;23.256;2023-08-30T13:05:58;93750.97;;;31.76;25.06